sensor_id;sensor_type;location;lat;lon;timestamp;P1;durP1;ratioP1;P2;durP2;ratioP2
51806;SDS011;37865;51.304;9.536;2023-08-24T00:01:58;7.82;;;6.43;;
51806;SDS011;37865;51.304;9.536;2023-08-24T00:04:23;10.20;;;6.50;;
51806;SDS011;37865;51.304;9.536;2023-08-24T00:06:49;9.52;;;7.03;;
51806;SDS011;37865;51.304;9.536;2023-08-24T00:09:14;7.00;;;6.40;;
51806;SDS011;37865;51.304;9.536;2023-08-24T00:11:40;11.05;;;7.30;;
51806;SDS011;37865;51.304;9.536;2023-08-24T00:14:06;9.43;;;7.15;;
51806;SDS011;37865;51.304;9.536;2023-08-24T00:16:31;9.57;;;6.30;;
51806;SDS011;37865;51.304;9.536;2023-08-24T00:18:57;7.90;;;7.10;;
51806;SDS011;37865;51.304;9.536;2023-08-24T00:21:23;7.95;;;6.70;;
51806;SDS011;37865;51.304;9.536;2023-08-24T00:23:49;12.48;;;7.10;;
51806;SDS011;37865;51.304;9.536;2023-08-24T00:26:15;7.38;;;6.75;;
51806;SDS011;37865;51.304;9.536;2023-08-24T00:28:43;7.25;;;6.60;;
51806;SDS011;37865;51.304;9.536;2023-08-24T00:31:09;9.15;;;7.30;;
51806;SDS011;37865;51.304;9.536;2023-08-24T00:33:34;28.27;;;8.13;;
51806;SDS011;37865;51.304;9.536;2023-08-24T00:36:02;8.82;;;7.25;;
51806;SDS011;37865;51.304;9.536;2023-08-24T00:38:27;13.32;;;7.10;;
51806;SDS011;37865;51.304;9.536;2023-08-24T00:40:53;7.93;;;7.13;;
51806;SDS011;37865;51.304;9.536;2023-08-24T00:43:19;12.07;;;8.02;;
51806;SDS011;37865;51.304;9.536;2023-08-24T00:45:52;29.83;;;9.13;;
51806;SDS011;37865;51.304;9.536;2023-08-24T00:48:20;13.20;;;7.82;;
51806;SDS011;37865;51.304;9.536;2023-08-24T00:50:50;8.25;;;7.40;;
51806;SDS011;37865;51.304;9.536;2023-08-24T00:53:16;21.67;;;7.97;;
51806;SDS011;37865;51.304;9.536;2023-08-24T00:55:44;8.43;;;7.57;;
51806;SDS011;37865;51.304;9.536;2023-08-24T00:58:09;15.30;;;8.05;;
51806;SDS011;37865;51.304;9.536;2023-08-24T01:00:35;14.40;;;8.93;;
51806;SDS011;37865;51.304;9.536;2023-08-24T01:03:01;7.43;;;6.72;;
51806;SDS011;37865;51.304;9.536;2023-08-24T01:05:26;17.67;;;9.30;;
51806;SDS011;37865;51.304;9.536;2023-08-24T01:07:51;9.38;;;8.05;;
51806;SDS011;37865;51.304;9.536;2023-08-24T01:10:17;8.43;;;7.63;;
51806;SDS011;37865;51.304;9.536;2023-08-24T01:12:47;10.48;;;7.63;;
51806;SDS011;37865;51.304;9.536;2023-08-24T01:15:29;8.63;;;7.82;;
51806;SDS011;37865;51.304;9.536;2023-08-24T01:18:02;9.20;;;8.30;;
51806;SDS011;37865;51.304;9.536;2023-08-24T01:20:30;9.30;;;8.40;;
51806;SDS011;37865;51.304;9.536;2023-08-24T01:25:53;9.95;;;8.80;;
51806;SDS011;37865;51.304;9.536;2023-08-24T01:28:39;11.82;;;8.43;;
51806;SDS011;37865;51.304;9.536;2023-08-24T01:31:05;9.18;;;8.25;;
51806;SDS011;37865;51.304;9.536;2023-08-24T01:33:31;9.05;;;8.18;;
51806;SDS011;37865;51.304;9.536;2023-08-24T01:35:56;9.23;;;8.43;;
51806;SDS011;37865;51.304;9.536;2023-08-24T01:38:22;9.38;;;7.15;;
51806;SDS011;37865;51.304;9.536;2023-08-24T01:43:28;11.65;;;9.77;;
51806;SDS011;37865;51.304;9.536;2023-08-24T01:45:55;16.02;;;9.15;;
51806;SDS011;37865;51.304;9.536;2023-08-24T01:48:22;9.88;;;8.98;;
51806;SDS011;37865;51.304;9.536;2023-08-24T01:50:50;14.70;;;9.45;;
51806;SDS011;37865;51.304;9.536;2023-08-24T01:53:16;10.90;;;9.32;;
51806;SDS011;37865;51.304;9.536;2023-08-24T01:55:41;9.85;;;8.85;;
51806;SDS011;37865;51.304;9.536;2023-08-24T01:58:08;14.73;;;10.32;;
51806;SDS011;37865;51.304;9.536;2023-08-24T02:00:33;11.13;;;9.00;;
51806;SDS011;37865;51.304;9.536;2023-08-24T02:02:58;13.18;;;10.32;;
51806;SDS011;37865;51.304;9.536;2023-08-24T02:05:24;12.18;;;9.30;;
51806;SDS011;37865;51.304;9.536;2023-08-24T02:07:52;10.52;;;8.23;;
51806;SDS011;37865;51.304;9.536;2023-08-24T02:10:19;11.73;;;9.88;;
51806;SDS011;37865;51.304;9.536;2023-08-24T02:12:44;12.05;;;10.40;;
51806;SDS011;37865;51.304;9.536;2023-08-24T02:15:09;14.07;;;8.82;;
51806;SDS011;37865;51.304;9.536;2023-08-24T02:17:34;16.35;;;9.43;;
51806;SDS011;37865;51.304;9.536;2023-08-24T02:20:00;15.18;;;11.40;;
51806;SDS011;37865;51.304;9.536;2023-08-24T02:22:25;10.98;;;9.85;;
51806;SDS011;37865;51.304;9.536;2023-08-24T02:24:50;12.32;;;9.10;;
51806;SDS011;37865;51.304;9.536;2023-08-24T02:27:16;11.70;;;9.77;;
51806;SDS011;37865;51.304;9.536;2023-08-24T02:29:41;11.18;;;10.13;;
51806;SDS011;37865;51.304;9.536;2023-08-24T02:32:06;13.63;;;10.63;;
51806;SDS011;37865;51.304;9.536;2023-08-24T02:34:32;12.73;;;11.48;;
51806;SDS011;37865;51.304;9.536;2023-08-24T02:36:57;10.30;;;9.40;;
51806;SDS011;37865;51.304;9.536;2023-08-24T02:39:22;9.43;;;8.55;;
51806;SDS011;37865;51.304;9.536;2023-08-24T02:41:49;10.15;;;9.15;;
51806;SDS011;37865;51.304;9.536;2023-08-24T02:44:14;10.70;;;9.65;;
51806;SDS011;37865;51.304;9.536;2023-08-24T02:46:39;12.07;;;10.82;;
51806;SDS011;37865;51.304;9.536;2023-08-24T02:49:05;10.98;;;9.98;;
51806;SDS011;37865;51.304;9.536;2023-08-24T02:51:30;11.57;;;10.55;;
51806;SDS011;37865;51.304;9.536;2023-08-24T02:53:56;10.93;;;9.95;;
51806;SDS011;37865;51.304;9.536;2023-08-24T02:56:21;11.00;;;9.48;;
51806;SDS011;37865;51.304;9.536;2023-08-24T02:58:46;11.10;;;9.98;;
51806;SDS011;37865;51.304;9.536;2023-08-24T03:01:12;10.70;;;9.38;;
51806;SDS011;37865;51.304;9.536;2023-08-24T03:03:37;12.70;;;11.25;;
51806;SDS011;37865;51.304;9.536;2023-08-24T03:06:04;12.52;;;11.23;;
51806;SDS011;37865;51.304;9.536;2023-08-24T03:08:31;13.95;;;12.10;;
51806;SDS011;37865;51.304;9.536;2023-08-24T03:10:58;20.88;;;10.63;;
51806;SDS011;37865;51.304;9.536;2023-08-24T03:13:24;12.27;;;10.98;;
51806;SDS011;37865;51.304;9.536;2023-08-24T03:15:50;12.27;;;10.98;;
51806;SDS011;37865;51.304;9.536;2023-08-24T03:18:16;14.73;;;12.15;;
51806;SDS011;37865;51.304;9.536;2023-08-24T03:20:41;12.80;;;11.70;;
51806;SDS011;37865;51.304;9.536;2023-08-24T03:23:07;15.40;;;11.35;;
51806;SDS011;37865;51.304;9.536;2023-08-24T03:25:36;18.48;;;11.05;;
51806;SDS011;37865;51.304;9.536;2023-08-24T03:28:03;20.42;;;10.70;;
51806;SDS011;37865;51.304;9.536;2023-08-24T03:30:28;13.13;;;11.80;;
51806;SDS011;37865;51.304;9.536;2023-08-24T03:32:54;15.98;;;12.18;;
51806;SDS011;37865;51.304;9.536;2023-08-24T03:35:19;12.13;;;11.05;;
51806;SDS011;37865;51.304;9.536;2023-08-24T03:37:44;13.88;;;12.50;;
51806;SDS011;37865;51.304;9.536;2023-08-24T03:40:10;16.02;;;11.60;;
51806;SDS011;37865;51.304;9.536;2023-08-24T03:42:35;16.60;;;13.32;;
51806;SDS011;37865;51.304;9.536;2023-08-24T03:45:00;13.40;;;12.10;;
51806;SDS011;37865;51.304;9.536;2023-08-24T03:47:26;18.20;;;11.77;;
51806;SDS011;37865;51.304;9.536;2023-08-24T03:49:51;19.80;;;13.85;;
51806;SDS011;37865;51.304;9.536;2023-08-24T03:52:16;16.27;;;12.15;;
51806;SDS011;37865;51.304;9.536;2023-08-24T03:54:42;16.35;;;12.07;;
51806;SDS011;37865;51.304;9.536;2023-08-24T03:57:07;14.10;;;12.43;;
51806;SDS011;37865;51.304;9.536;2023-08-24T03:59:33;14.50;;;12.75;;
51806;SDS011;37865;51.304;9.536;2023-08-24T04:01:58;24.25;;;13.65;;
51806;SDS011;37865;51.304;9.536;2023-08-24T04:04:27;15.93;;;12.45;;
51806;SDS011;37865;51.304;9.536;2023-08-24T04:06:52;12.98;;;11.77;;
51806;SDS011;37865;51.304;9.536;2023-08-24T04:09:18;17.77;;;13.18;;
51806;SDS011;37865;51.304;9.536;2023-08-24T04:11:43;14.38;;;12.25;;
51806;SDS011;37865;51.304;9.536;2023-08-24T04:14:09;13.95;;;11.95;;
51806;SDS011;37865;51.304;9.536;2023-08-24T04:16:34;16.90;;;13.77;;
51806;SDS011;37865;51.304;9.536;2023-08-24T04:18:59;14.82;;;13.43;;
51806;SDS011;37865;51.304;9.536;2023-08-24T04:21:25;14.77;;;13.18;;
51806;SDS011;37865;51.304;9.536;2023-08-24T04:23:50;21.38;;;12.23;;
51806;SDS011;37865;51.304;9.536;2023-08-24T04:26:15;15.52;;;11.82;;
51806;SDS011;37865;51.304;9.536;2023-08-24T04:28:41;24.05;;;14.25;;
51806;SDS011;37865;51.304;9.536;2023-08-24T04:31:06;14.35;;;13.07;;
51806;SDS011;37865;51.304;9.536;2023-08-24T04:33:32;14.77;;;13.35;;
51806;SDS011;37865;51.304;9.536;2023-08-24T04:35:57;14.85;;;13.15;;
51806;SDS011;37865;51.304;9.536;2023-08-24T04:38:23;19.77;;;12.35;;
51806;SDS011;37865;51.304;9.536;2023-08-24T04:40:52;13.52;;;12.32;;
51806;SDS011;37865;51.304;9.536;2023-08-24T04:43:19;15.50;;;12.00;;
51806;SDS011;37865;51.304;9.536;2023-08-24T04:45:46;15.23;;;12.75;;
51806;SDS011;37865;51.304;9.536;2023-08-24T04:48:13;13.82;;;12.35;;
51806;SDS011;37865;51.304;9.536;2023-08-24T04:50:38;13.30;;;11.95;;
51806;SDS011;37865;51.304;9.536;2023-08-24T04:53:04;17.23;;;11.88;;
51806;SDS011;37865;51.304;9.536;2023-08-24T04:55:29;14.40;;;10.15;;
51806;SDS011;37865;51.304;9.536;2023-08-24T04:57:54;15.43;;;11.00;;
51806;SDS011;37865;51.304;9.536;2023-08-24T05:00:20;20.70;;;10.70;;
51806;SDS011;37865;51.304;9.536;2023-08-24T05:02:45;19.95;;;11.10;;
51806;SDS011;37865;51.304;9.536;2023-08-24T05:05:11;16.67;;;9.98;;
51806;SDS011;37865;51.304;9.536;2023-08-24T05:07:39;12.70;;;10.82;;
51806;SDS011;37865;51.304;9.536;2023-08-24T05:10:05;16.92;;;9.93;;
51806;SDS011;37865;51.304;9.536;2023-08-24T05:12:31;10.32;;;9.20;;
51806;SDS011;37865;51.304;9.536;2023-08-24T05:14:58;9.25;;;8.45;;
51806;SDS011;37865;51.304;9.536;2023-08-24T05:17:24;11.88;;;10.50;;
51806;SDS011;37865;51.304;9.536;2023-08-24T05:19:51;12.65;;;9.23;;
51806;SDS011;37865;51.304;9.536;2023-08-24T05:22:18;10.48;;;9.30;;
51806;SDS011;37865;51.304;9.536;2023-08-24T05:24:44;11.68;;;8.60;;
51806;SDS011;37865;51.304;9.536;2023-08-24T05:27:09;9.00;;;8.23;;
51806;SDS011;37865;51.304;9.536;2023-08-24T05:29:34;13.20;;;8.90;;
51806;SDS011;37865;51.304;9.536;2023-08-24T05:31:59;13.05;;;9.70;;
51806;SDS011;37865;51.304;9.536;2023-08-24T05:34:25;9.40;;;7.30;;
51806;SDS011;37865;51.304;9.536;2023-08-24T05:36:50;12.45;;;7.93;;
51806;SDS011;37865;51.304;9.536;2023-08-24T05:39:16;20.80;;;8.50;;
51806;SDS011;37865;51.304;9.536;2023-08-24T05:41:41;8.98;;;7.95;;
51806;SDS011;37865;51.304;9.536;2023-08-24T05:44:07;9.35;;;7.45;;
51806;SDS011;37865;51.304;9.536;2023-08-24T05:46:32;11.25;;;8.07;;
51806;SDS011;37865;51.304;9.536;2023-08-24T05:48:57;7.95;;;7.25;;
51806;SDS011;37865;51.304;9.536;2023-08-24T05:51:24;9.00;;;7.30;;
51806;SDS011;37865;51.304;9.536;2023-08-24T05:53:49;11.40;;;7.72;;
51806;SDS011;37865;51.304;9.536;2023-08-24T05:56:20;13.95;;;8.07;;
51806;SDS011;37865;51.304;9.536;2023-08-24T05:58:46;12.90;;;8.35;;
51806;SDS011;37865;51.304;9.536;2023-08-24T06:01:11;12.35;;;7.63;;
51806;SDS011;37865;51.304;9.536;2023-08-24T06:03:36;10.48;;;7.57;;
51806;SDS011;37865;51.304;9.536;2023-08-24T06:06:02;6.95;;;6.35;;
51806;SDS011;37865;51.304;9.536;2023-08-24T06:08:28;13.75;;;7.63;;
51806;SDS011;37865;51.304;9.536;2023-08-24T06:10:53;9.40;;;8.50;;
51806;SDS011;37865;51.304;9.536;2023-08-24T06:13:19;7.97;;;7.25;;
51806;SDS011;37865;51.304;9.536;2023-08-24T06:15:44;10.77;;;8.10;;
51806;SDS011;37865;51.304;9.536;2023-08-24T06:18:09;7.68;;;6.95;;
51806;SDS011;37865;51.304;9.536;2023-08-24T06:20:34;8.07;;;7.03;;
51806;SDS011;37865;51.304;9.536;2023-08-24T06:23:00;8.00;;;7.22;;
51806;SDS011;37865;51.304;9.536;2023-08-24T06:25:25;12.73;;;8.20;;
51806;SDS011;37865;51.304;9.536;2023-08-24T06:27:50;11.38;;;7.25;;
51806;SDS011;37865;51.304;9.536;2023-08-24T06:30:16;7.85;;;7.05;;
51806;SDS011;37865;51.304;9.536;2023-08-24T06:32:41;10.18;;;8.13;;
51806;SDS011;37865;51.304;9.536;2023-08-24T06:35:06;9.90;;;7.40;;
51806;SDS011;37865;51.304;9.536;2023-08-24T06:37:32;14.05;;;8.55;;
51806;SDS011;37865;51.304;9.536;2023-08-24T06:39:57;11.35;;;7.70;;
51806;SDS011;37865;51.304;9.536;2023-08-24T06:42:23;14.18;;;8.13;;
51806;SDS011;37865;51.304;9.536;2023-08-24T06:44:48;13.55;;;7.53;;
51806;SDS011;37865;51.304;9.536;2023-08-24T06:47:16;8.98;;;7.88;;
51806;SDS011;37865;51.304;9.536;2023-08-24T06:49:42;10.50;;;6.88;;
51806;SDS011;37865;51.304;9.536;2023-08-24T06:52:07;8.13;;;7.32;;
51806;SDS011;37865;51.304;9.536;2023-08-24T06:54:33;19.58;;;7.53;;
51806;SDS011;37865;51.304;9.536;2023-08-24T06:56:58;15.88;;;8.02;;
51806;SDS011;37865;51.304;9.536;2023-08-24T06:59:24;8.07;;;7.35;;
51806;SDS011;37865;51.304;9.536;2023-08-24T07:01:49;11.27;;;7.32;;
51806;SDS011;37865;51.304;9.536;2023-08-24T07:04:14;18.23;;;8.30;;
51806;SDS011;37865;51.304;9.536;2023-08-24T07:06:40;13.35;;;7.75;;
51806;SDS011;37865;51.304;9.536;2023-08-24T07:09:06;10.90;;;7.50;;
51806;SDS011;37865;51.304;9.536;2023-08-24T07:11:32;13.77;;;8.50;;
51806;SDS011;37865;51.304;9.536;2023-08-24T07:13:57;19.58;;;8.18;;
51806;SDS011;37865;51.304;9.536;2023-08-24T07:16:23;12.75;;;7.75;;
51806;SDS011;37865;51.304;9.536;2023-08-24T07:18:48;12.65;;;8.10;;
51806;SDS011;37865;51.304;9.536;2023-08-24T07:21:14;16.02;;;7.90;;
51806;SDS011;37865;51.304;9.536;2023-08-24T07:23:40;12.02;;;9.10;;
51806;SDS011;37865;51.304;9.536;2023-08-24T07:26:05;14.02;;;9.07;;
51806;SDS011;37865;51.304;9.536;2023-08-24T07:28:31;11.77;;;8.63;;
51806;SDS011;37865;51.304;9.536;2023-08-24T07:30:56;18.55;;;8.30;;
51806;SDS011;37865;51.304;9.536;2023-08-24T07:33:21;17.75;;;7.95;;
51806;SDS011;37865;51.304;9.536;2023-08-24T07:35:47;13.65;;;8.18;;
51806;SDS011;37865;51.304;9.536;2023-08-24T07:38:13;22.15;;;7.85;;
51806;SDS011;37865;51.304;9.536;2023-08-24T07:40:39;9.25;;;8.32;;
51806;SDS011;37865;51.304;9.536;2023-08-24T07:43:04;26.85;;;8.02;;
51806;SDS011;37865;51.304;9.536;2023-08-24T07:45:29;16.50;;;9.85;;
51806;SDS011;37865;51.304;9.536;2023-08-24T07:47:55;14.52;;;9.30;;
51806;SDS011;37865;51.304;9.536;2023-08-24T07:50:21;16.42;;;10.00;;
51806;SDS011;37865;51.304;9.536;2023-08-24T07:52:47;13.05;;;9.23;;
51806;SDS011;37865;51.304;9.536;2023-08-24T07:55:13;14.55;;;8.60;;
51806;SDS011;37865;51.304;9.536;2023-08-24T07:57:38;10.57;;;8.50;;
51806;SDS011;37865;51.304;9.536;2023-08-24T08:00:04;13.75;;;7.78;;
51806;SDS011;37865;51.304;9.536;2023-08-24T08:02:30;12.05;;;9.57;;
51806;SDS011;37865;51.304;9.536;2023-08-24T08:04:59;10.02;;;8.23;;
51806;SDS011;37865;51.304;9.536;2023-08-24T08:07:25;8.00;;;7.20;;
51806;SDS011;37865;51.304;9.536;2023-08-24T08:09:51;10.27;;;7.65;;
51806;SDS011;37865;51.304;9.536;2023-08-24T08:12:17;10.43;;;8.82;;
51806;SDS011;37865;51.304;9.536;2023-08-24T08:14:42;13.32;;;10.18;;
51806;SDS011;37865;51.304;9.536;2023-08-24T08:17:07;15.20;;;10.73;;
51806;SDS011;37865;51.304;9.536;2023-08-24T08:19:33;13.80;;;9.15;;
51806;SDS011;37865;51.304;9.536;2023-08-24T08:22:00;10.43;;;9.32;;
51806;SDS011;37865;51.304;9.536;2023-08-24T08:24:26;17.00;;;9.05;;
51806;SDS011;37865;51.304;9.536;2023-08-24T08:26:51;8.95;;;8.05;;
51806;SDS011;37865;51.304;9.536;2023-08-24T08:29:17;10.45;;;8.65;;
51806;SDS011;37865;51.304;9.536;2023-08-24T08:31:42;13.80;;;9.68;;
51806;SDS011;37865;51.304;9.536;2023-08-24T08:34:08;14.00;;;10.23;;
51806;SDS011;37865;51.304;9.536;2023-08-24T08:36:33;13.73;;;8.82;;
51806;SDS011;37865;51.304;9.536;2023-08-24T08:38:59;10.80;;;9.75;;
51806;SDS011;37865;51.304;9.536;2023-08-24T08:41:26;12.80;;;7.82;;
51806;SDS011;37865;51.304;9.536;2023-08-24T08:43:55;15.48;;;8.20;;
51806;SDS011;37865;51.304;9.536;2023-08-24T08:46:21;13.23;;;8.40;;
51806;SDS011;37865;51.304;9.536;2023-08-24T08:48:46;10.65;;;7.85;;
51806;SDS011;37865;51.304;9.536;2023-08-24T08:51:13;19.05;;;7.25;;
51806;SDS011;37865;51.304;9.536;2023-08-24T08:53:40;9.27;;;7.22;;
51806;SDS011;37865;51.304;9.536;2023-08-24T08:56:06;13.07;;;8.05;;
51806;SDS011;37865;51.304;9.536;2023-08-24T08:58:32;11.85;;;6.70;;
51806;SDS011;37865;51.304;9.536;2023-08-24T09:01:01;9.82;;;6.78;;
51806;SDS011;37865;51.304;9.536;2023-08-24T09:03:28;17.65;;;7.82;;
51806;SDS011;37865;51.304;9.536;2023-08-24T09:05:56;15.50;;;7.20;;
51806;SDS011;37865;51.304;9.536;2023-08-24T09:08:22;10.05;;;6.95;;
51806;SDS011;37865;51.304;9.536;2023-08-24T09:10:48;12.60;;;6.50;;
51806;SDS011;37865;51.304;9.536;2023-08-24T09:13:14;20.92;;;6.63;;
51806;SDS011;37865;51.304;9.536;2023-08-24T09:15:40;7.93;;;6.90;;
51806;SDS011;37865;51.304;9.536;2023-08-24T09:18:05;13.57;;;6.47;;
51806;SDS011;37865;51.304;9.536;2023-08-24T09:20:30;8.35;;;6.30;;
51806;SDS011;37865;51.304;9.536;2023-08-24T09:22:56;12.18;;;6.72;;
51806;SDS011;37865;51.304;9.536;2023-08-24T09:25:23;23.13;;;6.95;;
51806;SDS011;37865;51.304;9.536;2023-08-24T09:27:58;12.93;;;7.38;;
51806;SDS011;37865;51.304;9.536;2023-08-24T09:30:31;17.60;;;6.95;;
51806;SDS011;37865;51.304;9.536;2023-08-24T09:33:15;7.95;;;5.85;;
51806;SDS011;37865;51.304;9.536;2023-08-24T09:35:41;6.47;;;5.45;;
51806;SDS011;37865;51.304;9.536;2023-08-24T09:38:15;6.47;;;5.93;;
51806;SDS011;37865;51.304;9.536;2023-08-24T09:40:44;12.90;;;6.10;;
51806;SDS011;37865;51.304;9.536;2023-08-24T09:43:16;12.48;;;5.65;;
51806;SDS011;37865;51.304;9.536;2023-08-24T09:45:51;10.15;;;5.88;;
51806;SDS011;37865;51.304;9.536;2023-08-24T09:48:18;8.15;;;5.22;;
51806;SDS011;37865;51.304;9.536;2023-08-24T09:50:44;7.85;;;5.10;;
51806;SDS011;37865;51.304;9.536;2023-08-24T09:53:15;12.43;;;4.80;;
51806;SDS011;37865;51.304;9.536;2023-08-24T09:58:22;17.23;;;5.05;;
51806;SDS011;37865;51.304;9.536;2023-08-24T10:00:49;12.98;;;5.47;;
51806;SDS011;37865;51.304;9.536;2023-08-24T10:03:16;21.85;;;5.50;;
51806;SDS011;37865;51.304;9.536;2023-08-24T10:05:46;13.90;;;5.53;;
51806;SDS011;37865;51.304;9.536;2023-08-24T10:08:15;7.03;;;5.32;;
51806;SDS011;37865;51.304;9.536;2023-08-24T10:10:46;12.65;;;5.32;;
51806;SDS011;37865;51.304;9.536;2023-08-24T10:13:17;8.98;;;5.40;;
51806;SDS011;37865;51.304;9.536;2023-08-24T10:15:46;4.82;;;4.35;;
51806;SDS011;37865;51.304;9.536;2023-08-24T10:18:14;13.55;;;5.10;;
51806;SDS011;37865;51.304;9.536;2023-08-24T10:20:41;5.45;;;4.70;;
51806;SDS011;37865;51.304;9.536;2023-08-24T10:23:08;16.52;;;5.22;;
51806;SDS011;37865;51.304;9.536;2023-08-24T10:25:35;9.60;;;4.50;;
51806;SDS011;37865;51.304;9.536;2023-08-24T10:28:02;7.15;;;4.35;;
51806;SDS011;37865;51.304;9.536;2023-08-24T10:30:29;5.45;;;4.60;;
51806;SDS011;37865;51.304;9.536;2023-08-24T10:32:55;9.85;;;3.58;;
51806;SDS011;37865;51.304;9.536;2023-08-24T10:35:22;8.75;;;3.72;;
51806;SDS011;37865;51.304;9.536;2023-08-24T10:37:48;4.85;;;3.83;;
51806;SDS011;37865;51.304;9.536;2023-08-24T10:40:30;10.13;;;5.50;;
51806;SDS011;37865;51.304;9.536;2023-08-24T10:43:02;3.67;;;3.33;;
51806;SDS011;37865;51.304;9.536;2023-08-24T10:45:53;4.20;;;3.70;;
51806;SDS011;37865;51.304;9.536;2023-08-24T10:48:25;4.13;;;3.55;;
51806;SDS011;37865;51.304;9.536;2023-08-24T10:53:47;7.47;;;4.68;;
51806;SDS011;37865;51.304;9.536;2023-08-24T10:56:16;5.88;;;3.33;;
51806;SDS011;37865;51.304;9.536;2023-08-24T10:58:43;9.57;;;3.22;;
51806;SDS011;37865;51.304;9.536;2023-08-24T11:01:18;5.88;;;3.22;;
51806;SDS011;37865;51.304;9.536;2023-08-24T11:03:50;7.32;;;4.45;;
51806;SDS011;37865;51.304;9.536;2023-08-24T11:06:20;5.00;;;3.70;;
51806;SDS011;37865;51.304;9.536;2023-08-24T11:08:47;6.40;;;4.35;;
51806;SDS011;37865;51.304;9.536;2023-08-24T11:11:22;6.47;;;3.78;;
51806;SDS011;37865;51.304;9.536;2023-08-24T11:16:56;5.20;;;3.72;;
51806;SDS011;37865;51.304;9.536;2023-08-24T11:19:23;6.07;;;3.92;;
51806;SDS011;37865;51.304;9.536;2023-08-24T11:21:50;5.43;;;3.22;;
51806;SDS011;37865;51.304;9.536;2023-08-24T11:24:16;18.27;;;4.57;;
51806;SDS011;37865;51.304;9.536;2023-08-24T11:26:43;10.13;;;4.13;;
51806;SDS011;37865;51.304;9.536;2023-08-24T11:29:10;9.52;;;4.40;;
51806;SDS011;37865;51.304;9.536;2023-08-24T11:31:36;6.57;;;3.83;;
51806;SDS011;37865;51.304;9.536;2023-08-24T11:34:03;10.43;;;4.30;;
51806;SDS011;37865;51.304;9.536;2023-08-24T11:36:29;7.88;;;3.95;;
51806;SDS011;37865;51.304;9.536;2023-08-24T11:38:57;6.25;;;3.83;;
51806;SDS011;37865;51.304;9.536;2023-08-24T11:41:23;8.02;;;4.88;;
51806;SDS011;37865;51.304;9.536;2023-08-24T11:43:53;7.25;;;3.45;;
51806;SDS011;37865;51.304;9.536;2023-08-24T11:46:24;7.60;;;4.53;;
51806;SDS011;37865;51.304;9.536;2023-08-24T11:48:49;11.80;;;3.70;;
51806;SDS011;37865;51.304;9.536;2023-08-24T11:51:14;10.98;;;3.55;;
51806;SDS011;37865;51.304;9.536;2023-08-24T11:53:40;7.90;;;4.03;;
51806;SDS011;37865;51.304;9.536;2023-08-24T11:56:10;5.65;;;3.58;;
51806;SDS011;37865;51.304;9.536;2023-08-24T11:58:40;6.35;;;3.35;;
51806;SDS011;37865;51.304;9.536;2023-08-24T12:01:06;5.40;;;3.40;;
51806;SDS011;37865;51.304;9.536;2023-08-24T12:03:33;9.40;;;3.72;;
51806;SDS011;37865;51.304;9.536;2023-08-24T12:06:02;5.25;;;3.28;;
51806;SDS011;37865;51.304;9.536;2023-08-24T12:08:43;3.67;;;3.38;;
51806;SDS011;37865;51.304;9.536;2023-08-24T12:11:12;9.35;;;3.30;;
51806;SDS011;37865;51.304;9.536;2023-08-24T12:13:48;5.07;;;3.60;;
51806;SDS011;37865;51.304;9.536;2023-08-24T12:16:15;11.95;;;3.92;;
51806;SDS011;37865;51.304;9.536;2023-08-24T12:18:48;20.77;;;8.25;;
51806;SDS011;37865;51.304;9.536;2023-08-24T12:21:17;11.13;;;3.65;;
51806;SDS011;37865;51.304;9.536;2023-08-24T12:23:44;11.68;;;4.43;;
51806;SDS011;37865;51.304;9.536;2023-08-24T12:26:19;4.05;;;2.92;;
51806;SDS011;37865;51.304;9.536;2023-08-24T12:28:48;6.73;;;2.87;;
51806;SDS011;37865;51.304;9.536;2023-08-24T12:31:15;7.35;;;2.75;;
51806;SDS011;37865;51.304;9.536;2023-08-24T12:33:42;2.90;;;2.60;;
51806;SDS011;37865;51.304;9.536;2023-08-24T12:36:07;3.20;;;2.42;;
51806;SDS011;37865;51.304;9.536;2023-08-24T12:38:35;3.67;;;2.40;;
51806;SDS011;37865;51.304;9.536;2023-08-24T12:41:01;4.97;;;2.55;;
51806;SDS011;37865;51.304;9.536;2023-08-24T12:43:26;2.60;;;2.28;;
51806;SDS011;37865;51.304;9.536;2023-08-24T12:45:51;4.57;;;2.15;;
51806;SDS011;37865;51.304;9.536;2023-08-24T12:48:16;6.70;;;2.80;;
51806;SDS011;37865;51.304;9.536;2023-08-24T12:50:42;4.55;;;2.80;;
51806;SDS011;37865;51.304;9.536;2023-08-24T12:53:07;6.50;;;2.25;;
51806;SDS011;37865;51.304;9.536;2023-08-24T12:55:33;2.05;;;1.73;;
51806;SDS011;37865;51.304;9.536;2023-08-24T12:58:00;2.45;;;1.85;;
51806;SDS011;37865;51.304;9.536;2023-08-24T13:00:25;3.72;;;1.60;;
51806;SDS011;37865;51.304;9.536;2023-08-24T13:02:52;3.47;;;2.25;;
51806;SDS011;37865;51.304;9.536;2023-08-24T13:05:17;5.38;;;3.10;;
51806;SDS011;37865;51.304;9.536;2023-08-24T13:07:43;2.17;;;1.90;;
51806;SDS011;37865;51.304;9.536;2023-08-24T13:10:08;5.70;;;2.70;;
51806;SDS011;37865;51.304;9.536;2023-08-24T13:12:34;2.60;;;2.40;;
51806;SDS011;37865;51.304;9.536;2023-08-24T13:15:00;4.13;;;2.22;;
51806;SDS011;37865;51.304;9.536;2023-08-24T13:17:25;2.75;;;2.08;;
51806;SDS011;37865;51.304;9.536;2023-08-24T13:19:50;2.00;;;1.80;;
51806;SDS011;37865;51.304;9.536;2023-08-24T13:22:15;2.95;;;2.13;;
51806;SDS011;37865;51.304;9.536;2023-08-24T13:24:41;4.38;;;1.80;;
51806;SDS011;37865;51.304;9.536;2023-08-24T13:27:09;2.75;;;1.92;;
51806;SDS011;37865;51.304;9.536;2023-08-24T13:29:38;3.75;;;1.63;;
51806;SDS011;37865;51.304;9.536;2023-08-24T13:32:05;3.00;;;2.70;;
51806;SDS011;37865;51.304;9.536;2023-08-24T13:34:30;2.30;;;2.10;;
51806;SDS011;37865;51.304;9.536;2023-08-24T13:36:56;5.50;;;2.25;;
51806;SDS011;37865;51.304;9.536;2023-08-24T13:39:27;3.55;;;2.30;;
51806;SDS011;37865;51.304;9.536;2023-08-24T13:41:55;2.35;;;1.85;;
51806;SDS011;37865;51.304;9.536;2023-08-24T13:44:21;7.68;;;2.72;;
51806;SDS011;37865;51.304;9.536;2023-08-24T13:46:47;3.05;;;2.05;;
51806;SDS011;37865;51.304;9.536;2023-08-24T13:49:12;3.92;;;1.95;;
51806;SDS011;37865;51.304;9.536;2023-08-24T13:51:38;3.88;;;1.85;;
51806;SDS011;37865;51.304;9.536;2023-08-24T13:54:11;2.47;;;1.58;;
51806;SDS011;37865;51.304;9.536;2023-08-24T13:56:38;2.88;;;2.13;;
51806;SDS011;37865;51.304;9.536;2023-08-24T13:59:04;4.60;;;2.50;;
51806;SDS011;37865;51.304;9.536;2023-08-24T14:01:29;3.13;;;2.25;;
51806;SDS011;37865;51.304;9.536;2023-08-24T14:03:54;2.65;;;2.42;;
51806;SDS011;37865;51.304;9.536;2023-08-24T14:06:20;3.22;;;1.85;;
51806;SDS011;37865;51.304;9.536;2023-08-24T14:08:45;4.18;;;1.85;;
51806;SDS011;37865;51.304;9.536;2023-08-24T14:11:10;2.65;;;1.60;;
51806;SDS011;37865;51.304;9.536;2023-08-24T14:13:36;2.45;;;2.17;;
51806;SDS011;37865;51.304;9.536;2023-08-24T14:16:01;5.60;;;3.30;;
51806;SDS011;37865;51.304;9.536;2023-08-24T14:18:26;3.00;;;1.85;;
51806;SDS011;37865;51.304;9.536;2023-08-24T14:20:53;17.85;;;2.83;;
51806;SDS011;37865;51.304;9.536;2023-08-24T14:23:18;2.15;;;1.52;;
51806;SDS011;37865;51.304;9.536;2023-08-24T14:25:45;6.28;;;2.50;;
51806;SDS011;37865;51.304;9.536;2023-08-24T14:28:11;2.38;;;1.88;;
51806;SDS011;37865;51.304;9.536;2023-08-24T14:30:38;4.43;;;2.40;;
51806;SDS011;37865;51.304;9.536;2023-08-24T14:33:04;3.08;;;2.30;;
51806;SDS011;37865;51.304;9.536;2023-08-24T14:35:29;3.17;;;2.20;;
51806;SDS011;37865;51.304;9.536;2023-08-24T14:37:55;8.18;;;3.13;;
51806;SDS011;37865;51.304;9.536;2023-08-24T14:40:20;6.15;;;2.25;;
51806;SDS011;37865;51.304;9.536;2023-08-24T14:42:46;8.30;;;2.08;;
51806;SDS011;37865;51.304;9.536;2023-08-24T14:45:11;4.05;;;1.77;;
51806;SDS011;37865;51.304;9.536;2023-08-24T14:47:36;5.35;;;2.35;;
51806;SDS011;37865;51.304;9.536;2023-08-24T14:50:04;4.63;;;2.25;;